This is the latest recevied weather packets stored in our database for station/object DB0TBG. If no packets are shown the sender has not sent any weather packets the latest 10 day(s).
| Time | Temp. | Humidity | Pressure | Rain* | Wind** | Luminosity | Snow |
|---|---|---|---|---|---|---|---|
| 1777210465 | 13.89° C | 26% | 981 hPa | 0 mm | 0 m/s | - | - |
| 1777209867 | 13.89° C | 26% | 981 hPa | 0 mm | 0 m/s | - | - |
| 1777209268 | 13.89° C | 26% | 981 hPa | 0 mm | 0 m/s | - | - |
| 1777208663 | 14.44° C | 26% | 981 hPa | 0 mm | 0 m/s | - | - |
| 1777208065 | 14.44° C | 24% | 981 hPa | 0 mm | 0 m/s | - | - |
| 1777207466 | 14.44° C | 26% | 981 hPa | 0 mm | 0 m/s | - | - |
| 1777206862 | 13.89° C | 27% | 981 hPa | 0 mm | 0 m/s | - | - |
| 1777206264 | 14.44° C | 27% | 982 hPa | 0 mm | 0 m/s | - | - |
| 1777205665 | 13.33° C | 27% | 982 hPa | 0 mm | 0 m/s | - | - |
| 1777205061 | 13.89° C | 27% | 982 hPa | 0 mm | 0 m/s | - | - |
| 1777204463 | 13.33° C | 28% | 982 hPa | 0 mm | 0 m/s | - | - |
| 1777203863 | 13.33° C | 30% | 982 hPa | 0 mm | 0 m/s | - | - |
| 1777203259 | 11.67° C | 35% | 982 hPa | 0 mm | 0 m/s | - | - |
| 1777202660 | 11.67° C | 35% | 982 hPa | 0 mm | 0 m/s | - | - |
| 1777202061 | 11.67° C | 36% | 982 hPa | 0 mm | 0 m/s | - | - |
| 1777201456 | 13.33° C | 32% | 982 hPa | 0 mm | 0 m/s | - | - |
| 1777200258 | 12.22° C | 36% | 982 hPa | 0 mm | 0 m/s | - | - |
| 1777199656 | 11.67° C | 36% | 982 hPa | 0 mm | 0 m/s | - | - |
| 1777199057 | 11.67° C | 38% | 982 hPa | 0 mm | 0 m/s | - | - |
| 1777198452 | 11.11° C | 37% | 982 hPa | 0 mm | 0 m/s | - | - |
| 1777197851 | 11.11° C | 37% | 982 hPa | 0 mm | 0 m/s | - | - |
| 1777197248 | 11.67° C | 38% | 982 hPa | 0 mm | 0 m/s | - | - |
| 1777196649 | 11.67° C | 38% | 982 hPa | 0 mm | 0 m/s | - | - |
| 1777195477 | 11.67° C | 38% | 982 hPa | 0 mm | 0 m/s | - | - |
| 1777195417 | 11.67° C | 38% | 982 hPa | 0 mm | 0 m/s | - | - |
* Rain latest hour (hover to see other rain measurements)
** Current wind speed in m/s (hover to see current wind gust speed)